Time;durP1;ratioP1;P1;durP2;ratioP2;P2;SDS_P1;SDS_P2;PMS_P1;PMS_P2;Temp;Humidity;BMP_temperature;BMP_pressure;BME280_temperature;BME280_humidity;BME280_pressure;Samples;Min_cycle;Max_cycle;Signal;HPM_P1;HPM_P2
2023/04/15 00:02:18;;;;;;;2.42;1.02;;;8.40;63.40;;;;;;5061620;27;115630;-85
2023/04/15 00:04:46;;;;;;;3.03;1.60;;;8.40;62.90;;;;;;4998516;27;117639;-84
2023/04/15 00:07:13;;;;;;;2.55;1.45;;;8.40;63.40;;;;;;5026411;27;119139;-84
2023/04/15 00:09:41;;;;;;;4.13;2.00;;;8.50;63.70;;;;;;5010576;27;114575;-84
2023/04/15 00:12:09;;;;;;;5.05;2.90;;;8.60;63.40;;;;;;5035674;27;114562;-84
2023/04/15 00:14:37;;;;;;;9.70;4.60;;;8.60;63.80;;;;;;5063671;27;114729;-84
2023/04/15 00:17:04;;;;;;;8.88;4.82;;;8.70;64.10;;;;;;5051613;27;116393;-84
2023/04/15 00:19:32;;;;;;;7.75;5.03;;;8.70;64.40;;;;;;5051731;27;114528;-84
2023/04/15 00:22:00;;;;;;;10.50;6.30;;;8.70;64.70;;;;;;5062630;27;114917;-85
2023/04/15 00:24:28;;;;;;;10.68;5.75;;;8.80;64.70;;;;;;5062106;27;117961;-84
2023/04/15 00:26:55;;;;;;;8.77;5.88;;;8.70;64.70;;;;;;5029013;27;114225;-85
2023/04/15 00:29:22;;;;;;;11.65;6.82;;;8.80;64.70;;;;;;5047927;27;114334;-85
2023/04/15 00:31:49;;;;;;;11.80;7.18;;;8.70;64.80;;;;;;5048600;27;118443;-85
2023/04/15 00:34:16;;;;;;;10.60;5.68;;;8.70;65.00;;;;;;5015207;27;117545;-85
2023/04/15 00:36:43;;;;;;;10.70;6.10;;;8.70;65.10;;;;;;5033195;27;114499;-86
2023/04/15 00:39:11;;;;;;;9.65;5.65;;;8.70;65.20;;;;;;5033787;27;114539;-87
2023/04/15 00:41:38;;;;;;;9.70;6.20;;;8.70;65.20;;;;;;5049156;27;115820;-87
2023/04/15 00:44:08;;;;;;;9.73;5.75;;;8.60;65.30;;;;;;5034849;27;115072;-86
2023/04/15 00:46:35;;;;;;;9.63;5.82;;;8.60;64.90;;;;;;5059995;27;115544;-85
2023/04/15 00:49:03;;;;;;;11.38;6.40;;;8.60;65.10;;;;;;5024216;27;114272;-85
2023/04/15 00:51:55;;;;;;;8.05;4.82;;;8.60;65.30;;;;;;5001352;27;118134;-85
2023/04/15 00:54:23;;;;;;;7.00;4.28;;;8.60;64.90;;;;;;5068138;27;116818;-85
2023/04/15 00:56:50;;;;;;;10.15;5.72;;;8.50;64.90;;;;;;5018046;27;114663;-85
2023/04/15 00:59:20;;;;;;;10.57;5.47;;;8.50;65.10;;;;;;5050415;27;114453;-86
2023/04/15 01:01:47;;;;;;;10.02;5.97;;;8.50;65.20;;;;;;4999566;27;117778;-86
2023/04/15 01:04:15;;;;;;;10.95;6.18;;;8.50;65.10;;;;;;4982195;27;117797;-86
2023/04/15 01:06:42;;;;;;;8.75;5.35;;;8.50;65.20;;;;;;5033280;27;114611;-86
2023/04/15 01:09:10;;;;;;;8.63;4.70;;;8.40;65.30;;;;;;4982362;27;114648;-85
2023/04/15 01:11:38;;;;;;;8.00;4.60;;;8.40;65.40;;;;;;5031576;27;114892;-86
2023/04/15 01:14:08;;;;;;;7.32;4.63;;;8.30;65.40;;;;;;5015057;27;114775;-85
2023/04/15 01:16:38;;;;;;;5.85;3.38;;;8.20;65.40;;;;;;5014983;27;114413;-86
2023/04/15 01:19:07;;;;;;;6.18;3.60;;;8.30;64.50;;;;;;5015228;27;116127;-84
2023/04/15 01:21:38;;;;;;;6.40;4.00;;;8.20;64.40;;;;;;5051176;27;115402;-85
2023/04/15 01:24:09;;;;;;;10.15;5.70;;;8.20;64.30;;;;;;5033936;27;116764;-84
2023/04/15 01:26:38;;;;;;;2.90;1.65;;;8.20;64.40;;;;;;5032810;27;114401;-85
2023/04/15 01:29:07;;;;;;;2.90;1.80;;;8.10;63.40;;;;;;5032863;27;115542;-85
2023/04/15 01:31:36;;;;;;;6.75;3.20;;;8.20;63.10;;;;;;5031748;27;116877;-86
2023/04/15 01:34:23;;;;;;;7.03;3.72;;;8.20;63.30;;;;;;5062346;27;114478;-84
2023/04/15 01:37:11;;;;;;;6.60;4.00;;;8.20;63.90;;;;;;5049091;27;115608;-84
2023/04/15 01:39:39;;;;;;;6.63;3.95;;;8.20;64.10;;;;;;5027605;27;114511;-83
2023/04/15 01:42:07;;;;;;;8.23;4.45;;;8.30;64.10;;;;;;5024318;27;114846;-83
2023/04/15 01:44:36;;;;;;;7.20;4.38;;;8.30;64.00;;;;;;5027763;27;145703;-84
2023/04/15 01:47:05;;;;;;;7.00;4.25;;;8.30;64.10;;;;;;5061345;27;118312;-85
2023/04/15 01:49:34;;;;;;;6.82;3.50;;;8.20;64.20;;;;;;5047885;27;118499;-83
2023/04/15 01:52:02;;;;;;;6.40;3.60;;;8.20;64.00;;;;;;5030064;27;144370;-84
2023/04/15 01:54:31;;;;;;;7.28;3.95;;;8.10;64.40;;;;;;5065017;27;144380;-84
2023/04/15 01:56:59;;;;;;;5.20;3.63;;;8.00;64.40;;;;;;5030810;27;118078;-84
2023/04/15 01:59:30;;;;;;;5.95;3.45;;;8.10;64.60;;;;;;5065240;27;117867;-83
2023/04/15 02:01:59;;;;;;;7.03;4.13;;;8.00;64.50;;;;;;5045297;27;145364;-84
2023/04/15 02:04:28;;;;;;;6.55;3.50;;;7.90;64.60;;;;;;5047526;27;145759;-84
2023/04/15 02:07:00;;;;;;;5.95;3.08;;;7.90;64.80;;;;;;5026878;27;119146;-85
2023/04/15 02:09:29;;;;;;;6.65;3.60;;;7.90;64.90;;;;;;5026684;27;118850;-84
2023/04/15 02:11:59;;;;;;;5.35;3.42;;;7.90;65.10;;;;;;5013359;27;145471;-84
2023/04/15 02:14:29;;;;;;;5.43;3.40;;;7.80;65.10;;;;;;5013511;27;145948;-85
2023/04/15 02:17:05;;;;;;;6.80;3.60;;;7.80;65.40;;;;;;5080948;27;118874;-85
2023/04/15 02:19:34;;;;;;;5.55;3.53;;;7.80;65.20;;;;;;5064011;27;117850;-85
2023/04/15 02:22:03;;;;;;;4.85;3.40;;;7.70;65.10;;;;;;5046223;27;146409;-85
2023/04/15 02:24:33;;;;;;;4.72;3.25;;;7.70;65.20;;;;;;5046194;27;145809;-85
2023/04/15 02:27:03;;;;;;;4.93;2.80;;;7.70;65.20;;;;;;5047037;27;118037;-85
2023/04/15 02:29:31;;;;;;;6.15;3.70;;;7.80;65.10;;;;;;5022853;27;117827;-83
2023/04/15 02:32:01;;;;;;;4.78;3.53;;;7.80;64.90;;;;;;5027267;27;144614;-83
2023/04/15 02:34:31;;;;;;;5.10;3.55;;;7.70;65.00;;;;;;5026692;27;144182;-85
2023/04/15 02:37:00;;;;;;;5.10;3.58;;;7.70;65.10;;;;;;5028056;27;118074;-83
2023/04/15 02:39:28;;;;;;;6.63;4.32;;;7.60;65.40;;;;;;5044518;27;118026;-85
2023/04/15 02:41:58;;;;;;;6.25;3.92;;;7.60;65.50;;;;;;5026530;27;145455;-83
2023/04/15 02:44:26;;;;;;;7.00;4.35;;;7.50;65.40;;;;;;5002499;27;144190;-83
2023/04/15 02:46:59;;;;;;;6.25;4.28;;;7.40;66.00;;;;;;5010646;27;118193;-83
2023/04/15 02:49:29;;;;;;;7.97;4.63;;;7.40;66.30;;;;;;5027544;27;117033;-83
2023/04/15 02:51:59;;;;;;;6.50;4.43;;;7.40;66.40;;;;;;5042690;27;145424;-84
2023/04/15 02:54:27;;;;;;;6.60;4.68;;;7.40;66.40;;;;;;5003646;27;143426;-86
2023/04/15 02:56:56;;;;;;;6.20;4.03;;;7.40;66.40;;;;;;5026154;27;119054;-84
2023/04/15 02:59:24;;;;;;;6.50;4.90;;;7.40;66.20;;;;;;5044491;27;118011;-84
2023/04/15 03:01:55;;;;;;;7.85;5.85;;;7.30;66.40;;;;;;5025656;27;145441;-84
2023/04/15 03:04:23;;;;;;;6.97;5.00;;;7.30;66.30;;;;;;4993145;27;145316;-85
2023/04/15 03:06:52;;;;;;;8.60;5.95;;;7.30;66.30;;;;;;5003870;27;117788;-84
2023/04/15 03:09:20;;;;;;;7.82;6.32;;;7.30;66.50;;;;;;5026126;27;117824;-85
2023/04/15 03:11:52;;;;;;;8.95;7.15;;;7.20;66.30;;;;;;5023645;27;144525;-83
2023/04/15 03:14:21;;;;;;;9.00;6.75;;;7.30;66.20;;;;;;5029239;27;145280;-84
2023/04/15 03:16:50;;;;;;;9.45;7.22;;;7.20;66.10;;;;;;5046334;27;118745;-83
2023/04/15 03:19:19;;;;;;;9.25;6.90;;;7.20;66.00;;;;;;5013067;27;115995;-83
2023/04/15 03:21:48;;;;;;;10.13;7.18;;;7.20;65.90;;;;;;5061167;27;145986;-84
2023/04/15 03:24:17;;;;;;;7.93;6.32;;;7.20;65.70;;;;;;5011859;27;145812;-84
2023/04/15 03:26:45;;;;;;;8.98;6.78;;;7.10;66.00;;;;;;5029389;27;117170;-83
2023/04/15 03:29:16;;;;;;;8.23;6.22;;;7.10;65.90;;;;;;5045967;27;117878;-84
2023/04/15 03:31:45;;;;;;;8.70;6.30;;;7.00;66.20;;;;;;5028226;27;144172;-84
2023/04/15 03:34:14;;;;;;;9.30;6.65;;;7.00;66.20;;;;;;5028176;27;145005;-83
2023/04/15 03:36:42;;;;;;;10.00;6.93;;;7.00;66.10;;;;;;5012265;27;118201;-83
2023/04/15 03:39:11;;;;;;;11.27;7.72;;;7.00;66.10;;;;;;5023271;27;118562;-83
2023/04/15 03:41:39;;;;;;;11.60;7.75;;;7.00;66.10;;;;;;5036132;27;145288;-83
2023/04/15 03:44:07;;;;;;;12.10;8.27;;;6.90;66.20;;;;;;5044833;27;145020;-82
2023/04/15 03:46:36;;;;;;;10.27;7.50;;;6.90;66.30;;;;;;5045735;27;119259;-82
2023/04/15 03:49:06;;;;;;;10.55;8.07;;;6.80;66.40;;;;;;5069961;27;117864;-84
2023/04/15 03:51:35;;;;;;;9.85;7.35;;;6.80;66.60;;;;;;5028436;27;146284;-84
2023/04/15 03:54:03;;;;;;;11.10;7.60;;;6.80;66.70;;;;;;5061360;27;145628;-83
2023/04/15 03:56:31;;;;;;;11.15;7.85;;;6.80;66.60;;;;;;5062504;27;118202;-84
2023/04/15 03:59:00;;;;;;;11.13;7.50;;;6.70;66.70;;;;;;5045820;27;118879;-84
2023/04/15 04:01:29;;;;;;;11.68;7.63;;;6.70;66.80;;;;;;5061307;27;146039;-84
2023/04/15 04:03:57;;;;;;;8.95;7.30;;;6.70;66.90;;;;;;5043907;27;145045;-84
2023/04/15 04:06:26;;;;;;;10.55;7.03;;;6.70;66.90;;;;;;5012552;27;118198;-83
2023/04/15 04:08:55;;;;;;;10.00;7.07;;;6.60;67.00;;;;;;5045629;27;117950;-84
2023/04/15 04:11:23;;;;;;;11.43;7.60;;;6.60;67.20;;;;;;5044177;27;145290;-84
2023/04/15 04:13:52;;;;;;;11.32;8.30;;;6.60;67.30;;;;;;5028133;27;144810;-84
2023/04/15 04:16:20;;;;;;;11.70;8.00;;;6.70;67.10;;;;;;5063441;27;118115;-84
2023/04/15 04:18:49;;;;;;;10.43;8.05;;;6.70;66.70;;;;;;5063177;27;117070;-86
2023/04/15 04:21:17;;;;;;;10.02;7.50;;;6.50;67.00;;;;;;5061269;27;145844;-85
2023/04/15 04:23:45;;;;;;;11.60;7.70;;;6.40;67.20;;;;;;5061932;27;145836;-85
2023/04/15 04:26:14;;;;;;;12.98;9.20;;;6.40;67.40;;;;;;5055379;27;116693;-86
2023/04/15 04:28:42;;;;;;;10.70;8.32;;;6.50;67.50;;;;;;5064363;27;118574;-86
2023/04/15 04:31:11;;;;;;;11.32;8.68;;;6.60;67.40;;;;;;5060546;27;145346;-85
2023/04/15 04:33:39;;;;;;;13.55;8.80;;;6.70;67.40;;;;;;5013909;27;145676;-85
2023/04/15 04:36:07;;;;;;;13.48;9.10;;;6.70;67.30;;;;;;5006979;27;119855;-86
2023/04/15 04:38:36;;;;;;;12.23;8.82;;;6.70;67.40;;;;;;5041184;27;118780;-87
2023/04/15 04:41:05;;;;;;;11.30;9.00;;;6.70;67.30;;;;;;5007362;27;146069;-86
2023/04/15 04:43:33;;;;;;;16.33;10.48;;;6.80;67.20;;;;;;5007442;27;145712;-87
2023/04/15 04:46:02;;;;;;;11.52;8.77;;;6.90;67.20;;;;;;5007795;27;117143;-88
2023/04/15 04:48:31;;;;;;;11.80;8.85;;;6.90;66.90;;;;;;5004160;27;117953;-86
2023/04/15 04:50:59;;;;;;;10.93;8.60;;;7.00;66.20;;;;;;5038762;27;144402;-86
2023/04/15 04:53:28;;;;;;;11.80;7.90;;;6.90;66.00;;;;;;5023956;27;145099;-84
2023/04/15 04:55:57;;;;;;;12.77;9.38;;;7.00;66.20;;;;;;5022382;27;117151;-84
2023/04/15 04:58:26;;;;;;;11.98;8.38;;;7.00;66.20;;;;;;5028045;27;117006;-84
2023/04/15 05:00:54;;;;;;;11.77;8.68;;;7.10;66.40;;;;;;5048025;27;146064;-85
2023/04/15 05:03:23;;;;;;;19.58;13.02;;;7.20;66.30;;;;;;5022471;27;144198;-86
2023/04/15 05:05:51;;;;;;;21.48;14.02;;;7.20;66.30;;;;;;5018628;27;118456;-84
2023/04/15 05:08:20;;;;;;;19.48;13.93;;;7.20;66.00;;;;;;5041037;27;118000;-84
2023/04/15 05:10:48;;;;;;;22.67;15.45;;;7.20;66.00;;;;;;5019645;27;145552;-86
2023/04/15 05:13:16;;;;;;;24.65;17.13;;;7.30;66.20;;;;;;5021864;27;145107;-83
2023/04/15 05:15:45;;;;;;;28.05;17.98;;;7.60;67.00;;;;;;5036972;27;117306;-83
2023/04/15 05:18:13;;;;;;;24.38;18.02;;;7.80;67.20;;;;;;5040509;27;118398;-84
2023/04/15 05:20:44;;;;;;;22.85;16.45;;;8.10;66.30;;;;;;5013924;27;145443;-84
2023/04/15 05:23:15;;;;;;;20.75;14.85;;;8.50;65.40;;;;;;5025169;27;145889;-84
2023/04/15 05:25:44;;;;;;;21.25;14.98;;;8.70;65.10;;;;;;5043075;27;119143;-84
2023/04/15 05:28:12;;;;;;;18.63;13.98;;;8.80;64.40;;;;;;5040979;27;118811;-84
2023/04/15 05:30:44;;;;;;;19.98;14.35;;;8.80;63.80;;;;;;5042925;27;145352;-84
2023/04/15 05:33:13;;;;;;;20.08;14.45;;;8.80;63.60;;;;;;5042598;27;144540;-84
2023/04/15 05:35:42;;;;;;;20.92;15.85;;;8.80;63.70;;;;;;5050134;27;116542;-84
2023/04/15 05:38:13;;;;;;;21.75;16.40;;;8.80;64.00;;;;;;5045198;27;115580;-84
2023/04/15 05:40:41;;;;;;;21.40;15.85;;;8.80;63.60;;;;;;5042087;27;146014;-84
2023/04/15 05:43:09;;;;;;;22.13;16.25;;;8.70;63.30;;;;;;5027884;27;144212;-84
2023/04/15 05:45:40;;;;;;;24.95;17.83;;;8.70;63.10;;;;;;5026446;27;117584;-84
2023/04/15 05:48:09;;;;;;;28.80;20.45;;;8.70;63.00;;;;;;5027338;27;117880;-83
2023/04/15 05:50:40;;;;;;;21.48;15.70;;;8.70;63.10;;;;;;5025843;27;146322;-84
2023/04/15 05:53:08;;;;;;;21.77;16.20;;;8.70;63.00;;;;;;5025084;27;144645;-82
2023/04/15 05:55:37;;;;;;;23.48;16.15;;;8.70;63.00;;;;;;5043997;27;118120;-83
2023/04/15 05:58:05;;;;;;;28.42;17.25;;;8.80;63.30;;;;;;5027086;27;118566;-85
2023/04/15 06:00:33;;;;;;;31.80;22.23;;;8.90;63.50;;;;;;5025926;27;144356;-83
2023/04/15 06:03:02;;;;;;;25.33;19.13;;;8.90;63.20;;;;;;5043917;27;145016;-83
2023/04/15 06:05:32;;;;;;;25.10;16.60;;;9.10;63.00;;;;;;5043650;27;118260;-83
2023/04/15 06:08:00;;;;;;;24.80;17.73;;;9.10;63.10;;;;;;5026305;27;118378;-83
2023/04/15 06:10:29;;;;;;;26.25;18.10;;;9.20;63.00;;;;;;5014305;27;146218;-83
2023/04/15 06:12:58;;;;;;;25.95;16.80;;;9.20;62.80;;;;;;5007369;27;146169;-83
2023/04/15 06:15:26;;;;;;;23.80;16.95;;;9.30;62.70;;;;;;5043027;27;119688;-83
2023/04/15 06:17:55;;;;;;;22.75;15.48;;;9.30;62.40;;;;;;5026613;27;119508;-83
2023/04/15 06:20:24;;;;;;;24.85;16.15;;;9.40;62.50;;;;;;5025997;27;146003;-84
2023/04/15 06:22:52;;;;;;;23.95;16.58;;;9.70;62.40;;;;;;4992735;27;144706;-84
2023/04/15 06:25:21;;;;;;;19.40;13.23;;;10.10;61.80;;;;;;5026456;27;119000;-84
2023/04/15 06:27:49;;;;;;;18.50;12.45;;;10.50;60.90;;;;;;5025857;27;118032;-84
2023/04/15 06:30:18;;;;;;;12.50;7.90;;;10.80;60.00;;;;;;5043628;27;145302;-85
2023/04/15 06:32:46;;;;;;;9.63;6.63;;;11.20;58.40;;;;;;5009036;27;144459;-86
2023/04/15 06:35:14;;;;;;;6.07;4.00;;;11.50;57.40;;;;;;5025703;27;120212;-85
2023/04/15 06:37:43;;;;;;;7.63;4.18;;;11.80;55.70;;;;;;5043336;27;117267;-87
2023/04/15 06:40:12;;;;;;;6.93;4.63;;;12.10;54.50;;;;;;5024355;27;145916;-86
2023/04/15 06:42:40;;;;;;;7.72;4.50;;;12.40;53.20;;;;;;5008942;27;145582;-84
2023/04/15 06:45:09;;;;;;;5.75;3.22;;;12.50;52.80;;;;;;5009936;27;118813;-85
2023/04/15 06:47:38;;;;;;;4.50;2.33;;;12.70;52.20;;;;;;5024499;27;117943;-84
2023/04/15 06:50:08;;;;;;;4.18;2.55;;;13.00;51.30;;;;;;5042089;27;144671;-84
2023/04/15 06:52:37;;;;;;;3.40;1.65;;;13.20;50.70;;;;;;5042496;27;144183;-84
2023/04/15 06:55:06;;;;;;;3.15;1.80;;;13.50;49.30;;;;;;5042098;27;117246;-84
2023/04/15 06:57:35;;;;;;;2.75;1.48;;;13.70;48.60;;;;;;5042743;27;122671;-84
2023/04/15 07:00:04;;;;;;;1.80;0.90;;;13.80;47.80;;;;;;5023692;27;146077;-83
2023/04/15 07:02:33;;;;;;;2.00;0.90;;;13.80;46.20;;;;;;5021969;27;146247;-83
2023/04/15 07:05:01;;;;;;;1.15;0.68;;;13.90;46.50;;;;;;5039892;27;119141;-84
2023/04/15 07:07:30;;;;;;;2.17;0.80;;;13.80;45.40;;;;;;5009013;27;118829;-84
2023/04/15 07:09:58;;;;;;;2.03;0.73;;;13.70;45.20;;;;;;5042952;27;143664;-83
2023/04/15 07:12:27;;;;;;;1.15;0.82;;;13.50;44.90;;;;;;5041662;27;145098;-83
2023/04/15 07:14:55;;;;;;;1.38;0.70;;;13.50;45.70;;;;;;5045631;27;117124;-82
2023/04/15 07:17:23;;;;;;;2.15;0.90;;;13.60;45.40;;;;;;5051266;27;118216;-84
2023/04/15 07:19:53;;;;;;;2.05;1.08;;;13.80;44.90;;;;;;5062910;27;143544;-83
2023/04/15 07:22:21;;;;;;;3.75;0.80;;;13.90;44.50;;;;;;5048445;27;144175;-84
2023/04/15 07:24:52;;;;;;;2.10;0.93;;;14.00;44.90;;;;;;5043389;27;117091;-84
2023/04/15 07:27:22;;;;;;;1.65;0.90;;;14.20;43.00;;;;;;5054330;27;118270;-84
2023/04/15 07:29:52;;;;;;;1.15;0.70;;;14.10;43.50;;;;;;5061190;27;145055;-84
2023/04/15 07:32:20;;;;;;;1.13;0.65;;;14.00;42.80;;;;;;5079395;27;144379;-84
2023/04/15 07:34:49;;;;;;;1.35;0.60;;;13.80;43.00;;;;;;5064396;27;118123;-83
2023/04/15 07:37:20;;;;;;;1.50;0.70;;;13.70;42.70;;;;;;5062201;27;117758;-84
2023/04/15 07:39:50;;;;;;;2.28;0.60;;;13.50;43.40;;;;;;5063295;27;144450;-84
2023/04/15 07:42:18;;;;;;;1.83;0.60;;;13.50;43.10;;;;;;5062889;27;143001;-82
2023/04/15 07:44:46;;;;;;;0.93;0.50;;;13.40;42.70;;;;;;5063945;27;118263;-84
2023/04/15 07:47:15;;;;;;;1.10;0.57;;;13.10;42.70;;;;;;5064461;27;118274;-84
2023/04/15 07:49:44;;;;;;;1.90;0.70;;;12.70;43.90;;;;;;5061000;27;144230;-84
2023/04/15 07:52:12;;;;;;;1.70;0.65;;;12.50;44.60;;;;;;5060671;27;144013;-84
2023/04/15 07:54:42;;;;;;;1.42;0.70;;;12.50;44.10;;;;;;5055076;27;118326;-83
2023/04/15 07:57:12;;;;;;;1.50;0.60;;;12.50;44.50;;;;;;5043490;27;119549;-85
2023/04/15 07:59:40;;;;;;;1.83;0.70;;;12.50;44.70;;;;;;5077471;27;146019;-84
2023/04/15 08:02:13;;;;;;;1.08;0.70;;;12.40;44.10;;;;;;5063049;27;143394;-84
2023/04/15 08:04:41;;;;;;;1.33;0.80;;;12.20;44.20;;;;;;5062348;27;117346;-84
2023/04/15 08:07:10;;;;;;;1.30;0.70;;;12.00;44.30;;;;;;5078046;27;118373;-84
2023/04/15 08:09:38;;;;;;;1.88;0.82;;;11.80;45.20;;;;;;5041442;27;143704;-84
2023/04/15 08:12:11;;;;;;;3.75;0.80;;;11.80;45.40;;;;;;5042922;27;145710;-84
2023/04/15 08:14:39;;;;;;;1.20;0.63;;;11.80;45.30;;;;;;5043182;27;118546;-83
2023/04/15 08:17:10;;;;;;;2.40;0.90;;;11.90;45.10;;;;;;5042768;27;118002;-84
2023/04/15 08:19:39;;;;;;;1.50;0.82;;;11.90;45.30;;;;;;5041332;27;144241;-84
2023/04/15 08:22:08;;;;;;;2.25;1.33;;;12.10;45.60;;;;;;5042837;27;145709;-84
2023/04/15 08:24:45;;;;;;;2.83;1.70;;;12.30;45.10;;;;;;5042253;27;117156;-85
2023/04/15 08:27:13;;;;;;;3.65;1.90;;;12.60;45.00;;;;;;5043550;27;118213;-85
2023/04/15 08:29:42;;;;;;;2.88;1.67;;;12.90;45.10;;;;;;5025242;27;144228;-84
2023/04/15 08:32:10;;;;;;;1.80;1.10;;;13.30;44.50;;;;;;5044072;27;144303;-84
2023/04/15 08:34:47;;;;;;;2.78;1.10;;;13.50;43.80;;;;;;5051326;27;117962;-83
2023/04/15 08:37:15;;;;;;;1.67;1.05;;;13.80;42.90;;;;;;5064169;27;117759;-84
2023/04/15 08:39:45;;;;;;;2.60;1.17;;;13.90;43.10;;;;;;5064059;27;145941;-84
2023/04/15 08:42:23;;;;;;;3.03;1.40;;;14.10;42.00;;;;;;5046860;27;145176;-85
2023/04/15 08:44:54;;;;;;;1.67;1.20;;;14.10;42.70;;;;;;5042040;27;117373;-84
2023/04/15 08:47:23;;;;;;;3.03;1.30;;;14.00;41.10;;;;;;5010645;27;117866;-85
2023/04/15 08:49:53;;;;;;;2.30;1.40;;;13.70;41.10;;;;;;5027098;27;145727;-85
2023/04/15 08:52:27;;;;;;;2.28;1.50;;;13.50;41.10;;;;;;5012210;27;142950;-84
2023/04/15 08:55:03;;;;;;;3.40;2.10;;;13.40;42.50;;;;;;5015860;27;118205;-85
2023/04/15 08:57:32;;;;;;;2.92;1.70;;;13.40;41.60;;;;;;5029981;27;118209;-84
2023/04/15 09:00:02;;;;;;;2.10;1.40;;;13.30;41.80;;;;;;5030467;27;145268;-85
2023/04/15 09:02:35;;;;;;;3.90;2.00;;;13.40;42.10;;;;;;5015036;27;144302;-84
2023/04/15 09:05:10;;;;;;;2.60;1.63;;;13.50;41.80;;;;;;5052301;27;117674;-84
2023/04/15 09:07:39;;;;;;;2.78;1.98;;;13.60;41.10;;;;;;5063025;27;116170;-84
2023/04/15 09:10:08;;;;;;;2.83;1.50;;;13.50;41.00;;;;;;5037168;27;144476;-84
2023/04/15 09:12:40;;;;;;;3.10;1.95;;;13.40;41.50;;;;;;5039650;27;145735;-84
2023/04/15 09:15:11;;;;;;;2.90;1.33;;;13.40;41.70;;;;;;5046615;27;118166;-84
2023/04/15 09:17:43;;;;;;;3.08;1.73;;;13.30;41.90;;;;;;5046408;27;117838;-85
2023/04/15 09:20:13;;;;;;;3.15;1.52;;;13.20;41.70;;;;;;5045756;27;144375;-85
2023/04/15 09:22:47;;;;;;;2.70;1.58;;;13.10;41.90;;;;;;5029444;27;145553;-84
2023/04/15 09:25:31;;;;;;;3.70;1.83;;;13.10;41.90;;;;;;5048180;27;118482;-84
2023/04/15 09:28:03;;;;;;;3.05;1.88;;;13.20;42.30;;;;;;5050464;27;118266;-85
2023/04/15 09:30:32;;;;;;;2.78;1.65;;;13.20;42.10;;;;;;5046794;27;144344;-84
2023/04/15 09:33:01;;;;;;;3.53;1.88;;;13.00;41.50;;;;;;5057999;27;143446;-85
2023/04/15 09:35:33;;;;;;;3.08;1.88;;;12.90;42.00;;;;;;5067255;27;117763;-85
2023/04/15 09:38:11;;;;;;;2.75;1.75;;;12.80;42.30;;;;;;5022171;27;117661;-85
2023/04/15 09:40:40;;;;;;;3.75;1.63;;;12.90;42.40;;;;;;5040038;27;144343;-84
2023/04/15 09:43:11;;;;;;;2.75;1.83;;;12.90;42.20;;;;;;5028206;27;145255;-84
2023/04/15 09:45:51;;;;;;;3.15;2.00;;;13.00;41.90;;;;;;5032706;27;118520;-84
2023/04/15 09:48:22;;;;;;;2.53;1.90;;;13.20;41.70;;;;;;5011695;27;117864;-84
2023/04/15 09:50:52;;;;;;;2.67;1.50;;;13.30;41.20;;;;;;5009779;27;145841;-83
2023/04/15 09:53:21;;;;;;;2.45;1.70;;;13.50;40.70;;;;;;5044132;27;144165;-84
2023/04/15 09:55:54;;;;;;;3.60;1.75;;;13.50;39.90;;;;;;5027199;27;118140;-85
2023/04/15 09:58:25;;;;;;;2.90;2.10;;;13.30;40.20;;;;;;5043399;27;117805;-84
2023/04/15 10:01:02;;;;;;;4.20;2.20;;;13.20;40.70;;;;;;5052992;27;145015;-84
2023/04/15 10:03:34;;;;;;;3.88;2.13;;;13.00;41.10;;;;;;5062624;27;145520;-85
2023/04/15 10:06:04;;;;;;;3.42;2.20;;;13.10;41.10;;;;;;5041233;27;118140;-84
2023/04/15 10:08:40;;;;;;;4.10;2.15;;;13.00;41.00;;;;;;5062883;27;117585;-84
2023/04/15 10:11:08;;;;;;;2.92;1.80;;;12.90;40.80;;;;;;5028802;27;144402;-84
2023/04/15 10:13:37;;;;;;;2.47;1.48;;;12.80;41.00;;;;;;5008351;27;144509;-84
2023/04/15 10:16:15;;;;;;;2.78;1.63;;;12.90;41.10;;;;;;5043670;27;118158;-85
2023/04/15 10:18:46;;;;;;;2.17;1.38;;;13.00;39.90;;;;;;5025510;27;117873;-84
2023/04/15 10:21:17;;;;;;;2.25;1.27;;;13.00;40.60;;;;;;5041204;27;144628;-85
2023/04/15 10:23:45;;;;;;;1.90;1.30;;;13.20;38.80;;;;;;5024637;27;144210;-85
2023/04/15 10:26:14;;;;;;;2.35;1.20;;;13.20;39.50;;;;;;5041299;27;118444;-85
2023/04/15 10:28:53;;;;;;;2.55;1.33;;;13.20;39.60;;;;;;5046694;27;120319;-84
2023/04/15 10:31:21;;;;;;;2.10;1.40;;;13.40;39.50;;;;;;5061442;27;143125;-85
2023/04/15 10:33:50;;;;;;;2.22;1.40;;;13.60;39.80;;;;;;5044122;27;143027;-85
2023/04/15 10:36:18;;;;;;;2.28;1.30;;;13.80;38.60;;;;;;5011780;27;117193;-84
2023/04/15 10:38:48;;;;;;;2.08;1.25;;;13.90;38.00;;;;;;5027906;27;116699;-84
2023/04/15 10:41:20;;;;;;;2.65;1.50;;;13.90;37.90;;;;;;5061295;27;145712;-85
2023/04/15 10:44:09;;;;;;;2.35;1.45;;;13.80;37.60;;;;;;5061112;27;145010;-84
2023/04/15 10:46:38;;;;;;;2.38;1.17;;;13.90;38.30;;;;;;5061950;27;117198;-84
2023/04/15 10:49:15;;;;;;;1.98;1.30;;;14.10;37.40;;;;;;5045425;27;118253;-84
2023/04/15 10:51:45;;;;;;;1.85;1.30;;;14.20;37.20;;;;;;5063497;27;144291;-85
2023/04/15 10:54:32;;;;;;;2.50;1.45;;;14.30;36.90;;;;;;5054996;27;144444;-84
2023/04/15 10:57:04;;;;;;;2.42;1.10;;;14.30;37.30;;;;;;5058888;27;118015;-84
2023/04/15 10:59:57;;;;;;;2.20;1.27;;;14.50;36.70;;;;;;5051085;27;116971;-83
2023/04/15 11:02:52;;;;;;;2.92;1.30;;;14.50;36.10;;;;;;5045395;27;145786;-83
2023/04/15 11:05:40;;;;;;;2.78;1.40;;;14.50;37.00;;;;;;5037176;27;144015;-84
2023/04/15 11:08:09;;;;;;;2.53;1.42;;;14.50;36.50;;;;;;5059982;27;118279;-84
2023/04/15 11:10:41;;;;;;;3.15;1.80;;;14.30;36.30;;;;;;5043645;27;118484;-84
2023/04/15 11:13:16;;;;;;;3.35;1.85;;;14.20;37.00;;;;;;5043167;27;145232;-84
2023/04/15 11:15:45;;;;;;;2.70;1.60;;;14.10;36.50;;;;;;5025634;27;145025;-84
2023/04/15 11:18:15;;;;;;;3.67;2.10;;;14.00;36.50;;;;;;5025117;27;118091;-84
2023/04/15 11:20:46;;;;;;;3.58;2.35;;;13.80;36.70;;;;;;5043253;27;118777;-84
2023/04/15 11:23:14;;;;;;;4.00;1.73;;;13.70;37.20;;;;;;5009109;27;144408;-84
2023/04/15 11:25:43;;;;;;;2.90;1.70;;;13.70;37.30;;;;;;5025459;27;145302;-84
2023/04/15 11:28:12;;;;;;;2.88;1.65;;;13.80;36.90;;;;;;5044442;27;117295;-84
2023/04/15 11:30:41;;;;;;;2.95;1.48;;;13.70;37.70;;;;;;5009884;27;117841;-83
2023/04/15 11:33:11;;;;;;;2.33;1.52;;;13.90;38.10;;;;;;5026366;27;145206;-83
2023/04/15 11:35:42;;;;;;;2.63;1.67;;;14.00;37.10;;;;;;5025873;27;145704;-83
2023/04/15 11:38:12;;;;;;;3.90;2.35;;;14.00;36.90;;;;;;5043937;27;118148;-84
2023/04/15 11:40:41;;;;;;;4.15;1.85;;;14.00;36.80;;;;;;5042608;27;117957;-84
2023/04/15 11:43:21;;;;;;;3.00;1.95;;;14.00;36.50;;;;;;5040920;27;145316;-83
2023/04/15 11:45:54;;;;;;;2.20;1.40;;;14.10;36.90;;;;;;5042610;27;144368;-84
2023/04/15 11:48:24;;;;;;;2.85;1.65;;;14.00;36.40;;;;;;5008874;27;118586;-84
2023/04/15 11:51:01;;;;;;;3.42;1.85;;;14.00;36.70;;;;;;5025980;27;117910;-85
2023/04/15 11:53:42;;;;;;;2.87;1.90;;;13.90;37.70;;;;;;5042313;27;116127;-84
2023/04/15 11:56:11;;;;;;;2.50;1.67;;;14.10;37.80;;;;;;5043810;27;114973;-84
2023/04/15 11:58:38;;;;;;;2.67;1.65;;;14.20;37.80;;;;;;5009559;27;115023;-86
2023/04/15 12:01:07;;;;;;;2.25;1.60;;;14.30;37.30;;;;;;5043155;27;114647;-84
2023/04/15 12:03:47;;;;;;;3.17;2.00;;;14.30;36.90;;;;;;5042506;27;114916;-83
2023/04/15 12:06:19;;;;;;;2.72;1.83;;;14.30;36.70;;;;;;5043078;27;119747;-84
2023/04/15 12:09:01;;;;;;;4.22;2.10;;;14.20;37.80;;;;;;5042770;27;115567;-84
2023/04/15 12:11:30;;;;;;;3.20;1.90;;;14.40;37.90;;;;;;5042682;27;114574;-84
2023/04/15 12:14:09;;;;;;;2.78;1.60;;;14.60;37.90;;;;;;5043481;27;114939;-84
2023/04/15 12:16:40;;;;;;;3.92;2.42;;;14.80;38.10;;;;;;5041990;27;115232;-84
2023/04/15 12:19:18;;;;;;;4.20;2.00;;;14.80;37.80;;;;;;5042902;27;114491;-84
2023/04/15 12:21:46;;;;;;;2.90;1.88;;;15.00;37.60;;;;;;5042552;27;114517;-83
2023/04/15 12:24:14;;;;;;;3.22;1.90;;;15.00;37.30;;;;;;5040714;27;116189;-84
2023/04/15 12:26:45;;;;;;;3.08;1.80;;;15.00;37.00;;;;;;5041790;27;115871;-83
2023/04/15 12:29:14;;;;;;;3.45;2.13;;;15.00;36.90;;;;;;5042456;27;115215;-84
2023/04/15 12:32:10;;;;;;;3.90;2.35;;;15.00;37.40;;;;;;5026125;27;114665;-83
2023/04/15 12:34:41;;;;;;;29.83;4.47;;;15.10;37.70;;;;;;5042875;27;117106;-84
2023/04/15 12:37:10;;;;;;;4.65;2.10;;;15.10;37.70;;;;;;5025229;27;118198;-84
2023/04/15 12:39:38;;;;;;;3.20;2.15;;;15.20;37.90;;;;;;5042740;27;114460;-84
2023/04/15 12:42:05;;;;;;;4.22;1.85;;;15.20;37.80;;;;;;5043410;27;114424;-84
2023/04/15 12:44:36;;;;;;;3.97;2.15;;;15.30;38.20;;;;;;5042358;27;114846;-85
2023/04/15 12:47:03;;;;;;;6.05;2.30;;;15.30;38.20;;;;;;5037626;27;114641;-83
2023/04/15 12:49:32;;;;;;;4.03;1.90;;;15.30;38.00;;;;;;5027599;27;114560;-84
2023/04/15 12:52:00;;;;;;;8.48;2.33;;;15.40;37.90;;;;;;5022383;27;114269;-84
2023/04/15 12:54:28;;;;;;;2.92;1.90;;;15.40;38.00;;;;;;5045509;27;115032;-84